Volcan De Teneguia — ECLA — position and weather

sailwx.info

Track history (hours):
 
Tides and Currents Weather Stations Pressure Air Temp Water Temp Dewpoint Dewpoint Depression Visibility Wind Speed Wind Dir Waves Ship Positions

Volcan De Teneguia

Last reported at 2015-Apr-11 04:15 UTC. Time now 2015-Apr-28 19:48 UTC.
Position N 29°11' W 015°19'.
Warning: this ship's position is 17 days out of date.

Length 145 m; draft 5.4 m.

Type: Cargo ship. MMSI: 225317000.

Date/timePositionNaut miles runAvg speedWind from/ knotsBaromVisibWave heightAir tempDewpointWater temp
2015-Apr-11 04:15N 29°11' W 015°19'1013.9
2015-Apr-11 03:33N 29°04' W 015°27'1414.0
2015-Apr-11 02:32N 28°54' W 015°38'1413.8
2015-Apr-11 01:33N 28°45' W 015°49'1414.1
2015-Apr-11 00:34N 28°34' W 015°60'1313.3
2015-Apr-10 23:33N 28°29' W 016°14'1 0.5
2015-Apr-10 22:27N 28°29' W 016°14'0 0.0
2015-Apr-10 20:27N 28°29' W 016°14'0 0.0
2015-Apr-10 19:15N 28°29' W 016°14'0 0.0
2015-Apr-10 18:18N 28°29' W 016°14'2 2.1
2015-Apr-10 17:32N 28°28' W 016°13'1212.7
2015-Apr-10 16:33N 28°23' W 015°60'1514.8
2015-Apr-10 15:33N 28°18' W 015°44'1414.5
2015-Apr-10 14:33N 28°14' W 015°28'6 6.3
2015-Apr-10 13:33N 28°08' W 015°25'1 0.6
2015-Apr-10 12:22N 28°09' W 015°25'0 0.0
2015-Apr-10 11:19N 28°09' W 015°25'0 0.0
2015-Apr-10 10:25N 28°09' W 015°25'0 0.0
2015-Apr-10 09:25N 28°09' W 015°25'0 0.0
2015-Apr-10 08:22N 28°09' W 015°25'0 0.0
2015-Apr-10 07:29N 28°09' W 015°25'0 0.0
2015-Apr-10 06:33N 28°09' W 015°25'2 2.1
2015-Apr-10 05:33N 28°07' W 015°23'10 9.8
2015-Apr-10 04:33N 28°15' W 015°16'1211.7
2015-Apr-10 03:33N 28°23' W 015°07'1212.2
2015-Apr-10 02:33N 28°33' W 014°58'  
2015-Apr-04 22:28N 29°60' W 014°25'1614.5
2015-Apr-04 21:23N 29°48' W 014°37'3114.4
2015-Apr-04 19:13N 29°26' W 015°03'1614.2
2015-Apr-04 18:05N 29°14' W 015°15'1014.4
2015-Apr-04 17:23N 29°07' W 015°24'1214.2
2015-Apr-04 16:33N 28°59' W 015°33'1414.3
2015-Apr-04 15:33N 28°49' W 015°44'1414.5
2015-Apr-04 14:33N 28°39' W 015°56'1514.9
2015-Apr-04 13:33N 28°29' W 016°09'4 3.4
2015-Apr-04 12:24N 28°29' W 016°14'0 0.0
2015-Apr-04 10:24N 28°29' W 016°14'0 0.0
2015-Apr-04 06:18N 28°29' W 016°14'0 0.0
2015-Apr-04 04:30N 28°29' W 016°14'0 0.0
2015-Apr-04 01:18N 28°29' W 016°14'2 3.0
2015-Apr-04 00:33N 28°28' W 016°12'1414.3
2015-Apr-03 23:34N 28°23' W 015°56'1413.7
2015-Apr-03 22:34N 28°18' W 015°42'1414.1
2015-Apr-03 21:34N 28°14' W 015°27'5 5.4
2015-Apr-03 20:33N 28°09' W 015°25'0 0.5
2015-Apr-03 19:32N 28°09' W 015°25'0 0.0
2015-Apr-03 18:32N 28°09' W 015°25'0 0.0
2015-Apr-03 17:32N 28°09' W 015°25'0 0.0
2015-Apr-03 16:32N 28°09' W 015°25'0 0.0
2015-Apr-03 15:32N 28°09' W 015°25'0 0.0
2015-Apr-03 14:32N 28°09' W 015°25'0 0.0
2015-Apr-03 13:23N 28°09' W 015°25'0 0.0
2015-Apr-03 12:33N 28°09' W 015°25'3 2.9
2015-Apr-03 11:33N 28°08' W 015°22'1211.7
2015-Apr-03 10:33N 28°17' W 015°13'1413.8
2015-Apr-03 09:33N 28°28' W 015°03'1413.8
2015-Apr-03 08:33N 28°38' W 014°52'1813.9
2015-Apr-03 07:18N 28°51' W 014°39'1113.9
2015-Apr-03 06:32N 28°59' W 014°31'1413.7
2015-Apr-03 05:33N 29°10' W 014°21'1413.6
2015-Apr-03 04:33N 29°20' W 014°12'1613.9
2015-Apr-03 03:24N 29°32' W 013°59'1313.9
2015-Apr-03 02:30N 29°42' W 013°50'1313.7
2015-Apr-03 01:33N 29°51' W 013°40'1313.5
2015-Apr-03 00:33N 30°02' W 013°30'2713.7
2015-Apr-02 22:34N 30°22' W 013°09'1413.8
2015-Apr-02 21:33N 30°33' W 012°59'1514.0
2015-Apr-02 20:29N 30°44' W 012°47'1313.8
2015-Apr-02 19:33N 30°53' W 012°37'2813.9
2015-Apr-02 17:33N 31°15' W 012°16'3213.4
2015-Apr-02 15:10N 31°38' W 011°52'1213.4
2015-Apr-02 14:15N 31°48' W 011°42'13213.6
2015-Apr-02 04:32N 33°28' W 009°60'1614.6
2015-Apr-02 03:25N 33°40' W 009°47'3114.8
2015-Apr-02 01:19N 34°04' W 009°23'10514.6
2015-Apr-01 18:08N 35°22' W 007°59'2714.5
2015-Apr-01 16:18N 35°43' W 007°38'1114.4
2015-Apr-01 15:33N 35°51' W 007°29'  
Track history (hours):
 
Tides and Currents Weather Stations Pressure Air Temp Water Temp Dewpoint Dewpoint Depression Visibility Wind Speed Wind Dir Waves Ship Positions

Volcan De Teneguia

Last reported at 2015-Apr-11 04:15 UTC. Time now 2015-Apr-28 19:48 UTC.
Position N 29°11' W 015°19'.
Warning: this ship's position is 17 days out of date.

Length 145 m; draft 5.4 m.

Type: Cargo ship. MMSI: 225317000.

Date/timePositionNaut miles runAvg speedWind from/ knotsBaromVisibWave heightAir tempDewpointWater temp
2015-Apr-11 04:15N 29°11' W 015°19'1013.9
2015-Apr-11 03:33N 29°04' W 015°27'1414.0
2015-Apr-11 02:32N 28°54' W 015°38'1413.8
2015-Apr-11 01:33N 28°45' W 015°49'1414.1
2015-Apr-11 00:34N 28°34' W 015°60'1313.3
2015-Apr-10 23:33N 28°29' W 016°14'1 0.5
2015-Apr-10 22:27N 28°29' W 016°14'0 0.0
2015-Apr-10 20:27N 28°29' W 016°14'0 0.0
2015-Apr-10 19:15N 28°29' W 016°14'0 0.0
2015-Apr-10 18:18N 28°29' W 016°14'2 2.1
2015-Apr-10 17:32N 28°28' W 016°13'1212.7
2015-Apr-10 16:33N 28°23' W 015°60'1514.8
2015-Apr-10 15:33N 28°18' W 015°44'1414.5
2015-Apr-10 14:33N 28°14' W 015°28'6 6.3
2015-Apr-10 13:33N 28°08' W 015°25'1 0.6
2015-Apr-10 12:22N 28°09' W 015°25'0 0.0
2015-Apr-10 11:19N 28°09' W 015°25'0 0.0
2015-Apr-10 10:25N 28°09' W 015°25'0 0.0
2015-Apr-10 09:25N 28°09' W 015°25'0 0.0
2015-Apr-10 08:22N 28°09' W 015°25'0 0.0
2015-Apr-10 07:29N 28°09' W 015°25'0 0.0
2015-Apr-10 06:33N 28°09' W 015°25'2 2.1
2015-Apr-10 05:33N 28°07' W 015°23'10 9.8
2015-Apr-10 04:33N 28°15' W 015°16'1211.7
2015-Apr-10 03:33N 28°23' W 015°07'1212.2
2015-Apr-10 02:33N 28°33' W 014°58'  
2015-Apr-04 22:28N 29°60' W 014°25'1614.5
2015-Apr-04 21:23N 29°48' W 014°37'3114.4
2015-Apr-04 19:13N 29°26' W 015°03'1614.2
2015-Apr-04 18:05N 29°14' W 015°15'1014.4
2015-Apr-04 17:23N 29°07' W 015°24'1214.2
2015-Apr-04 16:33N 28°59' W 015°33'1414.3
2015-Apr-04 15:33N 28°49' W 015°44'1414.5
2015-Apr-04 14:33N 28°39' W 015°56'1514.9
2015-Apr-04 13:33N 28°29' W 016°09'4 3.4
2015-Apr-04 12:24N 28°29' W 016°14'0 0.0
2015-Apr-04 10:24N 28°29' W 016°14'0 0.0
2015-Apr-04 06:18N 28°29' W 016°14'0 0.0
2015-Apr-04 04:30N 28°29' W 016°14'0 0.0
2015-Apr-04 01:18N 28°29' W 016°14'2 3.0
2015-Apr-04 00:33N 28°28' W 016°12'1414.3
2015-Apr-03 23:34N 28°23' W 015°56'1413.7
2015-Apr-03 22:34N 28°18' W 015°42'1414.1
2015-Apr-03 21:34N 28°14' W 015°27'5 5.4
2015-Apr-03 20:33N 28°09' W 015°25'0 0.5
2015-Apr-03 19:32N 28°09' W 015°25'0 0.0
2015-Apr-03 18:32N 28°09' W 015°25'0 0.0
2015-Apr-03 17:32N 28°09' W 015°25'0 0.0
2015-Apr-03 16:32N 28°09' W 015°25'0 0.0
2015-Apr-03 15:32N 28°09' W 015°25'0 0.0
2015-Apr-03 14:32N 28°09' W 015°25'0 0.0
2015-Apr-03 13:23N 28°09' W 015°25'0 0.0
2015-Apr-03 12:33N 28°09' W 015°25'3 2.9
2015-Apr-03 11:33N 28°08' W 015°22'1211.7
2015-Apr-03 10:33N 28°17' W 015°13'1413.8
2015-Apr-03 09:33N 28°28' W 015°03'1413.8
2015-Apr-03 08:33N 28°38' W 014°52'1813.9
2015-Apr-03 07:18N 28°51' W 014°39'1113.9
2015-Apr-03 06:32N 28°59' W 014°31'1413.7
2015-Apr-03 05:33N 29°10' W 014°21'1413.6
2015-Apr-03 04:33N 29°20' W 014°12'1613.9
2015-Apr-03 03:24N 29°32' W 013°59'1313.9
2015-Apr-03 02:30N 29°42' W 013°50'1313.7
2015-Apr-03 01:33N 29°51' W 013°40'1313.5
2015-Apr-03 00:33N 30°02' W 013°30'2713.7
2015-Apr-02 22:34N 30°22' W 013°09'1413.8
2015-Apr-02 21:33N 30°33' W 012°59'1514.0
2015-Apr-02 20:29N 30°44' W 012°47'1313.8
2015-Apr-02 19:33N 30°53' W 012°37'2813.9
2015-Apr-02 17:33N 31°15' W 012°16'3213.4
2015-Apr-02 15:10N 31°38' W 011°52'1213.4
2015-Apr-02 14:15N 31°48' W 011°42'13213.6
2015-Apr-02 04:32N 33°28' W 009°60'1614.6
2015-Apr-02 03:25N 33°40' W 009°47'3114.8
2015-Apr-02 01:19N 34°04' W 009°23'10514.6
2015-Apr-01 18:08N 35°22' W 007°59'2714.5
2015-Apr-01 16:18N 35°43' W 007°38'1114.4
2015-Apr-01 15:33N 35°51' W 007°29'  

Dump ship's entire track history